createdAt,value
2022-09-10T00:02:07.750Z,14.60
2022-09-10T00:04:34.367Z,14.60
2022-09-10T00:07:01.719Z,14.70
2022-09-10T00:09:28.905Z,14.70
2022-09-10T00:11:56.842Z,14.70
2022-09-10T00:14:24.346Z,14.70
2022-09-10T00:16:52.084Z,14.70
2022-09-10T00:19:19.395Z,14.70
2022-09-10T00:21:46.781Z,14.70
2022-09-10T00:24:14.050Z,14.80
2022-09-10T00:26:41.425Z,14.70
2022-09-10T00:29:10.476Z,14.70
2022-09-10T00:31:38.545Z,14.70
2022-09-10T00:34:06.164Z,14.70
2022-09-10T00:36:37.023Z,14.70
2022-09-10T00:39:07.575Z,14.80
2022-09-10T00:41:37.762Z,14.70
2022-09-10T00:44:26.074Z,14.80
2022-09-10T00:46:55.686Z,14.80
2022-09-10T00:49:33.697Z,14.80
2022-09-10T00:52:01.878Z,14.80
2022-09-10T00:54:30.724Z,14.80
2022-09-10T00:57:02.808Z,14.80
2022-09-10T00:59:30.903Z,14.80
2022-09-10T01:01:59.946Z,14.80
2022-09-10T01:04:28.593Z,14.80
2022-09-10T01:06:56.371Z,14.70
2022-09-10T01:09:24.362Z,14.70
2022-09-10T01:12:04.594Z,14.70
2022-09-10T01:14:56.353Z,14.70
2022-09-10T01:17:47.450Z,14.70
2022-09-10T01:20:32.870Z,14.70
2022-09-10T01:23:41.545Z,14.70
2022-09-10T01:26:33.202Z,14.70
2022-09-10T01:29:18.000Z,14.70
2022-09-10T01:31:58.811Z,14.70
2022-09-10T01:34:43.726Z,14.80
2022-09-10T01:37:21.399Z,14.80
2022-09-10T01:39:49.660Z,14.80
2022-09-10T01:42:17.444Z,14.90
2022-09-10T01:44:48.443Z,14.90
2022-09-10T01:48:01.109Z,14.90
2022-09-10T01:50:35.274Z,14.90
2022-09-10T01:53:16.830Z,14.90
2022-09-10T01:56:41.414Z,15.00
2022-09-10T01:59:43.511Z,15.00
2022-09-10T02:03:00.363Z,15.00
2022-09-10T02:05:33.594Z,15.00
2022-09-10T02:08:24.091Z,15.00
2022-09-10T02:10:59.722Z,15.00
2022-09-10T02:13:31.200Z,15.00
2022-09-10T02:16:31.959Z,15.00
2022-09-10T02:19:01.116Z,15.00
2022-09-10T02:21:28.268Z,15.10
2022-09-10T02:23:59.629Z,15.10
2022-09-10T02:26:27.589Z,15.10
2022-09-10T02:28:55.028Z,15.10
2022-09-10T02:31:22.662Z,15.10
2022-09-10T02:33:51.394Z,15.10
2022-09-10T02:36:18.821Z,15.10
2022-09-10T02:38:46.145Z,15.10
2022-09-10T02:41:14.607Z,15.10
2022-09-10T02:43:42.503Z,15.00
2022-09-10T02:46:10.238Z,15.00
2022-09-10T02:48:38.916Z,15.00
2022-09-10T02:51:07.351Z,15.00
2022-09-10T02:53:36.465Z,15.00
2022-09-10T02:56:05.187Z,15.00
2022-09-10T02:58:32.914Z,15.10
2022-09-10T03:01:21.960Z,15.00
2022-09-10T03:03:58.189Z,15.10
2022-09-10T03:06:26.603Z,15.10
2022-09-10T03:08:57.469Z,15.10
2022-09-10T03:11:27.152Z,15.10
2022-09-10T03:13:54.712Z,15.10
2022-09-10T03:16:24.065Z,15.10
2022-09-10T03:18:52.073Z,15.10
2022-09-10T03:21:21.571Z,15.10
2022-09-10T03:23:50.528Z,15.10
2022-09-10T03:26:25.173Z,15.10
2022-09-10T03:28:53.518Z,15.20
2022-09-10T03:31:22.575Z,15.20
2022-09-10T03:33:50.965Z,15.20
2022-09-10T03:36:18.516Z,15.20
2022-09-10T03:38:47.821Z,15.20
2022-09-10T03:41:15.036Z,15.20
2022-09-10T03:43:41.723Z,15.20
2022-09-10T03:46:12.273Z,15.10
2022-09-10T03:48:43.490Z,15.10
2022-09-10T03:51:11.129Z,15.10
2022-09-10T03:53:38.798Z,15.20
2022-09-10T03:56:07.729Z,15.20
2022-09-10T03:58:35.655Z,15.10
2022-09-10T04:01:04.590Z,15.20
2022-09-10T04:03:34.521Z,15.20
2022-09-10T04:06:01.798Z,15.10
2022-09-10T04:08:28.462Z,15.10
2022-09-10T04:11:01.782Z,15.10
2022-09-10T04:13:28.399Z,15.10
2022-09-10T04:15:56.282Z,15.10
2022-09-10T04:18:23.599Z,15.10
2022-09-10T04:20:50.899Z,15.10
2022-09-10T04:23:17.586Z,15.10
2022-09-10T04:25:46.726Z,15.00
2022-09-10T04:28:13.508Z,15.00
2022-09-10T04:30:40.755Z,15.00
2022-09-10T04:33:09.450Z,15.00
2022-09-10T04:35:36.448Z,15.00
2022-09-10T04:38:07.023Z,14.90
2022-09-10T04:40:37.213Z,14.90
2022-09-10T04:43:04.809Z,14.90
2022-09-10T04:45:35.364Z,14.90
2022-09-10T04:48:06.803Z,14.80
2022-09-10T04:50:35.796Z,14.80
2022-09-10T04:53:13.531Z,14.80
2022-09-10T04:55:43.339Z,14.80
2022-09-10T04:58:10.994Z,14.80
2022-09-10T05:00:39.538Z,14.80
2022-09-10T05:03:07.734Z,14.80
2022-09-10T05:05:36.710Z,14.80
2022-09-10T05:08:05.589Z,14.80
2022-09-10T05:10:33.240Z,14.80
2022-09-10T05:13:00.829Z,14.80
2022-09-10T05:15:28.489Z,14.80
2022-09-10T05:17:56.320Z,14.80
2022-09-10T05:20:23.391Z,14.80
2022-09-10T05:22:55.198Z,14.80
2022-09-10T05:25:24.303Z,14.80
2022-09-10T05:27:51.722Z,14.80
2022-09-10T05:30:21.202Z,14.80
2022-09-10T05:32:48.758Z,14.80
2022-09-10T05:35:16.065Z,14.80
2022-09-10T05:37:46.178Z,14.80
2022-09-10T05:40:14.792Z,14.80
2022-09-10T05:42:42.835Z,14.90
2022-09-10T05:45:10.371Z,14.90
2022-09-10T05:47:37.854Z,14.80
2022-09-10T05:50:06.922Z,14.90
2022-09-10T05:52:34.416Z,14.80
2022-09-10T05:55:05.757Z,14.90
2022-09-10T05:57:33.159Z,14.90
2022-09-10T06:00:01.220Z,14.90
2022-09-10T06:02:30.267Z,14.90
2022-09-10T06:05:00.464Z,14.80
2022-09-10T06:07:28.625Z,14.90
2022-09-10T06:09:57.448Z,14.90
2022-09-10T06:12:38.108Z,14.80
2022-09-10T06:15:07.083Z,14.90
2022-09-10T06:17:34.110Z,14.90
2022-09-10T06:20:02.413Z,14.90
2022-09-10T06:22:33.063Z,14.90
2022-09-10T06:25:00.008Z,14.90
2022-09-10T06:27:26.924Z,14.90
2022-09-10T06:29:56.266Z,14.90
2022-09-10T06:32:23.971Z,14.90
2022-09-10T06:34:51.120Z,14.90
2022-09-10T06:37:19.839Z,14.90
2022-09-10T06:39:46.763Z,14.90
2022-09-10T06:42:14.557Z,14.90
2022-09-10T06:44:55.418Z,14.90
2022-09-10T06:50:17.044Z,14.90
2022-09-10T06:52:45.483Z,14.90
2022-09-10T06:55:14.779Z,14.90
2022-09-10T06:57:44.359Z,14.90
2022-09-10T07:00:14.374Z,15.00
2022-09-10T07:02:43.861Z,15.00
2022-09-10T07:05:11.750Z,15.00
2022-09-10T07:07:40.750Z,15.10
2022-09-10T07:10:09.127Z,15.10
2022-09-10T07:12:36.138Z,15.20
2022-09-10T07:15:06.275Z,15.20
2022-09-10T07:17:35.879Z,15.30
2022-09-10T07:20:03.894Z,15.30
2022-09-10T07:22:42.842Z,15.30
2022-09-10T07:25:11.571Z,15.40
2022-09-10T07:27:53.749Z,15.40
2022-09-10T07:30:22.501Z,15.60
2022-09-10T07:32:50.810Z,15.70
2022-09-10T07:35:22.429Z,15.80
2022-09-10T07:37:50.074Z,16.00
2022-09-10T07:40:19.752Z,16.00
2022-09-10T07:42:46.386Z,16.00
2022-09-10T07:45:15.603Z,16.00
2022-09-10T07:47:44.866Z,16.00
2022-09-10T07:50:12.433Z,16.00
2022-09-10T07:52:40.395Z,16.00
2022-09-10T07:55:07.668Z,16.10
2022-09-10T07:57:38.008Z,16.10
2022-09-10T08:00:11.879Z,16.10
2022-09-10T08:02:42.843Z,16.10
2022-09-10T08:05:16.799Z,16.20
2022-09-10T08:07:44.933Z,16.20
2022-09-10T08:10:12.288Z,16.20
2022-09-10T08:12:40.996Z,16.20
2022-09-10T08:15:10.104Z,16.20
2022-09-10T08:17:39.961Z,16.10
2022-09-10T08:20:09.812Z,16.10
2022-09-10T08:22:38.638Z,16.00
2022-09-10T08:25:06.184Z,16.00
2022-09-10T08:27:34.237Z,16.00
2022-09-10T08:30:04.344Z,16.00
2022-09-10T08:32:31.574Z,15.90
2022-09-10T08:34:58.480Z,15.80
2022-09-10T08:37:27.435Z,15.80
2022-09-10T08:39:54.552Z,15.70
2022-09-10T08:42:35.155Z,15.70
2022-09-10T08:45:10.494Z,15.70
2022-09-10T08:47:53.485Z,15.70
2022-09-10T08:50:48.066Z,15.80
2022-09-10T08:53:28.674Z,15.80
2022-09-10T08:56:08.323Z,15.80
2022-09-10T08:58:47.797Z,15.80
2022-09-10T09:01:24.885Z,15.80
2022-09-10T09:03:55.426Z,15.80
2022-09-10T09:06:48.087Z,15.80
2022-09-10T09:09:16.090Z,15.90
2022-09-10T09:12:05.667Z,16.00
2022-09-10T09:14:47.308Z,16.20
2022-09-10T09:17:49.551Z,16.30
2022-09-10T09:20:25.632Z,16.40
2022-09-10T09:23:19.491Z,16.40
2022-09-10T09:25:48.063Z,16.50
2022-09-10T09:28:31.842Z,16.50
2022-09-10T09:31:00.040Z,16.50
2022-09-10T09:33:30.373Z,16.50
2022-09-10T09:36:01.681Z,16.40
2022-09-10T09:38:37.407Z,16.30
2022-09-10T09:41:23.019Z,16.30
2022-09-10T09:44:02.326Z,16.20
2022-09-10T09:46:29.983Z,16.10
2022-09-10T09:49:02.210Z,16.00
2022-09-10T09:51:35.093Z,16.00
2022-09-10T09:57:02.786Z,15.90
2022-09-10T09:59:32.146Z,15.90
2022-09-10T10:02:05.581Z,15.90
2022-09-10T10:04:36.993Z,15.90
2022-09-10T10:07:06.302Z,15.90
2022-09-10T10:09:38.896Z,15.90
2022-09-10T10:12:07.095Z,15.90
2022-09-10T10:14:39.108Z,15.90
2022-09-10T10:17:39.596Z,15.90
2022-09-10T10:20:12.634Z,15.80
2022-09-10T10:22:40.559Z,15.80
2022-09-10T10:25:41.463Z,15.80
2022-09-10T10:28:27.730Z,15.90
2022-09-10T10:30:57.661Z,16.00
2022-09-10T10:33:30.655Z,16.10
2022-09-10T10:36:11.370Z,16.30
2022-09-10T10:38:41.381Z,16.50
2022-09-10T10:41:43.959Z,16.80
2022-09-10T10:44:23.983Z,17.00
2022-09-10T10:46:59.855Z,17.10
2022-09-10T10:49:48.059Z,17.10
2022-09-10T10:52:35.102Z,17.00
2022-09-10T10:55:36.030Z,17.10
2022-09-10T10:58:28.886Z,17.00
2022-09-10T11:01:05.431Z,16.90
2022-09-10T11:03:42.679Z,16.90
2022-09-10T11:06:17.947Z,17.20
2022-09-10T11:09:05.824Z,17.30
2022-09-10T11:12:11.239Z,17.50
2022-09-10T11:15:00.837Z,17.50
2022-09-10T11:17:35.629Z,17.50
2022-09-10T11:20:28.432Z,17.70
2022-09-10T11:23:30.001Z,17.80
2022-09-10T11:26:13.020Z,17.90
2022-09-10T11:28:54.188Z,18.00
2022-09-10T11:31:35.696Z,18.00
2022-09-10T11:34:24.701Z,18.10
2022-09-10T11:37:12.245Z,18.10
2022-09-10T11:39:45.248Z,18.00
2022-09-10T11:42:19.468Z,17.90
2022-09-10T11:45:00.761Z,18.00
2022-09-10T11:47:42.626Z,18.30
2022-09-10T11:50:36.051Z,18.50
2022-09-10T11:53:07.191Z,18.70
2022-09-10T11:56:00.094Z,18.90
2022-09-10T11:58:44.818Z,19.00
2022-09-10T12:01:23.669Z,19.20
2022-09-10T12:04:28.314Z,19.30
2022-09-10T12:07:04.506Z,19.30
2022-09-10T12:10:00.761Z,19.30
2022-09-10T12:12:38.443Z,19.30
2022-09-10T12:15:15.625Z,19.50
2022-09-10T12:17:45.869Z,19.40
2022-09-10T12:20:29.865Z,19.30
2022-09-10T12:22:57.639Z,19.20
2022-09-10T12:25:33.213Z,19.10
2022-09-10T12:28:05.267Z,19.00
2022-09-10T12:30:34.989Z,18.90
2022-09-10T12:33:13.899Z,18.90
2022-09-10T12:35:49.133Z,19.00
2022-09-10T12:38:50.396Z,19.20
2022-09-10T12:41:23.100Z,19.10
2022-09-10T12:43:53.192Z,19.10
2022-09-10T12:46:22.524Z,19.00
2022-09-10T12:49:12.496Z,18.90
2022-09-10T12:51:56.559Z,18.80
2022-09-10T12:54:40.588Z,18.80
2022-09-10T12:57:29.822Z,18.70
2022-09-10T13:00:25.651Z,18.80
2022-09-10T13:02:59.886Z,18.80
2022-09-10T13:05:50.313Z,18.80
2022-09-10T13:08:53.621Z,18.60
2022-09-10T13:11:23.693Z,18.40
2022-09-10T13:14:01.621Z,18.20
2022-09-10T13:16:28.239Z,18.00
2022-09-10T13:19:13.728Z,17.90
2022-09-10T13:21:40.578Z,17.80
2022-09-10T13:24:38.603Z,17.70
2022-09-10T13:27:11.106Z,17.60
2022-09-10T13:29:40.930Z,17.60
2022-09-10T13:35:38.470Z,17.70
2022-09-10T13:38:32.966Z,17.70
2022-09-10T13:41:23.762Z,17.70
2022-09-10T13:44:03.473Z,17.70
2022-09-10T13:46:37.718Z,17.70
2022-09-10T13:49:29.049Z,17.70
2022-09-10T13:51:59.084Z,17.70
2022-09-10T13:54:51.432Z,17.60
2022-09-10T13:57:29.854Z,17.60
2022-09-10T14:00:07.423Z,17.60
2022-09-10T14:02:45.990Z,17.60
2022-09-10T14:05:23.102Z,17.60
2022-09-10T14:07:52.518Z,17.70
2022-09-10T14:10:19.541Z,17.70
2022-09-10T14:12:50.048Z,17.70
2022-09-10T14:15:21.959Z,17.70
2022-09-10T14:17:54.597Z,17.60
2022-09-10T14:20:33.691Z,17.70
2022-09-10T14:23:12.887Z,17.80
2022-09-10T14:25:42.545Z,17.80
2022-09-10T14:28:19.195Z,17.80
2022-09-10T14:30:49.046Z,17.80
2022-09-10T14:33:35.678Z,17.80
2022-09-10T14:36:17.291Z,17.80
2022-09-10T14:38:51.842Z,17.80
2022-09-10T14:41:22.097Z,17.80
2022-09-10T14:43:49.950Z,17.80
2022-09-10T14:46:46.042Z,17.80
2022-09-10T14:49:17.981Z,17.80
2022-09-10T14:51:45.157Z,17.70
2022-09-10T14:54:12.755Z,17.70
2022-09-10T14:56:45.987Z,17.70
2022-09-10T14:59:33.407Z,17.70
2022-09-10T15:02:01.920Z,17.70
2022-09-10T15:04:29.988Z,17.70
2022-09-10T15:06:59.296Z,17.60
2022-09-10T15:09:28.187Z,17.60
2022-09-10T15:12:02.022Z,17.60
2022-09-10T15:14:29.397Z,17.60
2022-09-10T15:16:56.611Z,17.50
2022-09-10T15:19:23.240Z,17.50
2022-09-10T15:21:50.828Z,17.50
2022-09-10T15:24:19.972Z,17.50
2022-09-10T15:26:47.674Z,17.40
2022-09-10T15:29:14.716Z,17.30
2022-09-10T15:31:43.677Z,17.30
2022-09-10T15:34:11.359Z,17.20
2022-09-10T15:36:40.161Z,17.10
2022-09-10T15:39:08.695Z,17.10
2022-09-10T15:41:35.371Z,17.10
2022-09-10T15:44:03.187Z,17.10
2022-09-10T15:46:29.860Z,17.00
2022-09-10T15:48:59.334Z,17.00
2022-09-10T15:51:26.818Z,17.00
2022-09-10T15:53:54.259Z,17.00
2022-09-10T15:56:24.796Z,17.00
2022-09-10T15:58:54.947Z,17.00
2022-09-10T16:01:24.135Z,17.00
2022-09-10T16:03:55.238Z,17.00
2022-09-10T16:06:23.897Z,17.10
2022-09-10T16:09:01.896Z,17.10
2022-09-10T16:11:33.455Z,17.20
2022-09-10T16:14:04.668Z,17.20
2022-09-10T16:16:32.591Z,17.30
2022-09-10T16:19:00.284Z,17.30
2022-09-10T16:21:29.588Z,17.30
2022-09-10T16:23:58.238Z,17.30
2022-09-10T16:26:28.207Z,17.40
2022-09-10T16:28:57.246Z,17.40
2022-09-10T16:31:32.931Z,17.50
2022-09-10T16:34:03.152Z,17.60
2022-09-10T16:36:32.375Z,17.70
2022-09-10T16:39:02.863Z,17.80
2022-09-10T16:41:29.860Z,17.80
2022-09-10T16:44:00.436Z,17.90
2022-09-10T16:46:27.815Z,17.90
2022-09-10T16:48:55.779Z,17.90
2022-09-10T16:51:24.407Z,17.90
2022-09-10T16:54:02.724Z,17.80
2022-09-10T16:56:38.182Z,17.80
2022-09-10T16:59:09.276Z,17.70
2022-09-10T17:01:37.115Z,17.70
2022-09-10T17:04:05.130Z,17.60
2022-09-10T17:06:31.823Z,17.60
2022-09-10T17:09:00.464Z,17.60
2022-09-10T17:11:32.822Z,17.50
2022-09-10T17:14:03.256Z,17.50
2022-09-10T17:16:39.697Z,17.50
2022-09-10T17:19:14.977Z,17.40
2022-09-10T17:21:44.446Z,17.30
2022-09-10T17:24:12.544Z,17.30
2022-09-10T17:26:40.407Z,17.20
2022-09-10T17:29:15.868Z,17.10
2022-09-10T17:31:43.678Z,17.00
2022-09-10T17:34:14.170Z,16.90
2022-09-10T17:36:45.479Z,16.90
2022-09-10T17:39:12.874Z,16.70
2022-09-10T17:41:40.091Z,16.70
2022-09-10T17:44:07.814Z,16.60
2022-09-10T17:46:35.994Z,16.60
2022-09-10T17:49:03.363Z,16.50
2022-09-10T17:51:32.322Z,16.40
2022-09-10T17:53:59.282Z,16.40
2022-09-10T17:56:26.665Z,16.40
2022-09-10T17:59:02.329Z,16.30
2022-09-10T18:01:31.781Z,16.30
2022-09-10T18:03:58.479Z,16.30
2022-09-10T18:06:28.829Z,16.30
2022-09-10T18:08:58.765Z,16.30
2022-09-10T18:11:28.087Z,16.30
2022-09-10T18:13:56.061Z,16.30
2022-09-10T18:16:26.605Z,16.30
2022-09-10T18:18:58.136Z,16.30
2022-09-10T18:21:36.314Z,16.30
2022-09-10T18:24:10.007Z,16.20
2022-09-10T18:26:39.330Z,16.20
2022-09-10T18:29:29.695Z,16.20
2022-09-10T18:32:00.500Z,16.10
2022-09-10T18:34:29.434Z,16.10
2022-09-10T18:36:58.714Z,16.10
2022-09-10T18:39:27.794Z,16.10
2022-09-10T18:41:55.243Z,16.10
2022-09-10T18:44:25.016Z,16.10
2022-09-10T18:46:55.908Z,16.10
2022-09-10T18:49:26.588Z,16.10
2022-09-10T18:51:54.832Z,16.10
2022-09-10T18:54:23.069Z,16.10
2022-09-10T18:56:50.785Z,16.10
2022-09-10T18:59:20.040Z,16.10
2022-09-10T19:01:48.292Z,16.10
2022-09-10T19:04:18.079Z,16.10
2022-09-10T19:06:46.785Z,16.10
2022-09-10T19:09:16.451Z,16.10
2022-09-10T19:11:45.189Z,16.10
2022-09-10T19:14:19.083Z,16.10
2022-09-10T19:16:47.348Z,16.00
2022-09-10T19:19:18.320Z,16.10
2022-09-10T19:21:53.524Z,16.00
2022-09-10T19:24:32.781Z,16.00
2022-09-10T19:27:07.323Z,16.10
2022-09-10T19:29:34.040Z,16.00
2022-09-10T19:32:00.709Z,16.00
2022-09-10T19:34:27.835Z,16.00
2022-09-10T19:36:55.576Z,16.00
2022-09-10T19:39:22.335Z,16.00
2022-09-10T19:41:50.023Z,16.00
2022-09-10T19:44:18.056Z,16.00
2022-09-10T19:46:45.163Z,16.00
2022-09-10T19:49:12.552Z,16.00
2022-09-10T19:51:40.571Z,15.90
2022-09-10T19:54:07.712Z,15.90
2022-09-10T19:56:37.380Z,15.90
2022-09-10T19:59:08.432Z,15.90
2022-09-10T20:01:40.659Z,15.80
2022-09-10T20:04:09.711Z,15.80
2022-09-10T20:06:37.200Z,15.80
2022-09-10T20:09:06.015Z,15.80
2022-09-10T20:11:35.360Z,15.80
2022-09-10T20:14:13.593Z,15.80
2022-09-10T20:16:43.157Z,15.80
2022-09-10T20:19:12.970Z,15.80
2022-09-10T20:21:39.936Z,15.80
2022-09-10T20:24:07.923Z,15.80
2022-09-10T20:26:38.013Z,15.80
2022-09-10T20:29:07.549Z,15.80
2022-09-10T20:31:35.779Z,15.90
2022-09-10T20:34:07.399Z,15.90
2022-09-10T20:36:35.513Z,15.90
2022-09-10T20:39:02.658Z,15.90
2022-09-10T20:41:30.063Z,15.90
2022-09-10T20:43:58.605Z,15.90
2022-09-10T20:46:26.642Z,15.80
2022-09-10T20:48:53.474Z,15.90
2022-09-10T20:51:20.856Z,15.90
2022-09-10T20:53:48.034Z,15.90
2022-09-10T20:56:18.091Z,15.90
2022-09-10T20:58:45.664Z,15.90
2022-09-10T21:01:20.644Z,15.90
2022-09-10T21:03:48.950Z,15.90
2022-09-10T21:06:20.877Z,15.90
2022-09-10T21:08:48.665Z,15.90
2022-09-10T21:11:20.442Z,15.90
2022-09-10T21:13:53.159Z,15.90
2022-09-10T21:16:26.882Z,15.90
2022-09-10T21:18:56.128Z,15.90
2022-09-10T21:21:27.947Z,15.90
2022-09-10T21:23:56.905Z,15.90
2022-09-10T21:26:29.481Z,15.80
2022-09-10T21:28:58.844Z,15.80
2022-09-10T21:31:27.111Z,15.80
2022-09-10T21:34:02.802Z,15.90
2022-09-10T21:36:31.581Z,15.90
2022-09-10T21:39:00.189Z,15.80
2022-09-10T21:41:33.363Z,15.80
2022-09-10T21:44:02.856Z,15.80
2022-09-10T21:46:29.846Z,15.80
2022-09-10T21:48:56.801Z,15.80
2022-09-10T21:51:23.988Z,15.80
2022-09-10T21:53:55.587Z,15.80
2022-09-10T21:56:23.792Z,15.70
2022-09-10T21:58:50.481Z,15.80
2022-09-10T22:01:22.405Z,15.70
2022-09-10T22:03:49.638Z,15.80
2022-09-10T22:06:18.972Z,15.80
2022-09-10T22:09:00.533Z,15.80
2022-09-10T22:11:36.630Z,15.80
2022-09-10T22:14:06.894Z,15.80
2022-09-10T22:16:35.062Z,15.80
2022-09-10T22:19:06.116Z,15.70
2022-09-10T22:21:33.809Z,15.70
2022-09-10T22:24:00.482Z,15.70
2022-09-10T22:26:31.278Z,15.70
2022-09-10T22:28:59.519Z,15.70
2022-09-10T22:31:29.377Z,15.70
2022-09-10T22:33:58.851Z,15.70
2022-09-10T22:36:31.050Z,15.70
2022-09-10T22:39:03.515Z,15.70
2022-09-10T22:41:32.362Z,15.70
2022-09-10T22:43:59.391Z,15.70
2022-09-10T22:46:26.838Z,15.70
2022-09-10T22:48:54.110Z,15.60
2022-09-10T22:51:23.608Z,15.70
2022-09-10T22:53:51.878Z,15.70
2022-09-10T22:56:24.967Z,15.60
2022-09-10T22:58:52.705Z,15.60
2022-09-10T23:01:23.702Z,15.50
2022-09-10T23:03:51.895Z,15.50
2022-09-10T23:06:21.976Z,15.50
2022-09-10T23:08:51.364Z,15.40
2022-09-10T23:11:29.743Z,15.30
2022-09-10T23:13:58.792Z,15.30
2022-09-10T23:16:28.700Z,15.20
2022-09-10T23:18:57.436Z,15.20
2022-09-10T23:21:25.880Z,15.10
2022-09-10T23:23:58.348Z,15.00
2022-09-10T23:26:25.877Z,15.00
2022-09-10T23:28:55.089Z,14.90
2022-09-10T23:31:24.809Z,14.90
2022-09-10T23:34:00.921Z,14.90
2022-09-10T23:36:31.161Z,14.80
2022-09-10T23:38:58.817Z,14.80
2022-09-10T23:41:26.543Z,14.70
2022-09-10T23:43:53.996Z,14.70
2022-09-10T23:46:21.722Z,14.70
2022-09-10T23:48:49.191Z,14.60
2022-09-10T23:51:19.492Z,14.60
2022-09-10T23:53:46.945Z,14.50
2022-09-10T23:56:16.996Z,14.50
2022-09-10T23:58:43.865Z,14.50
